Richardson, TX (75082)

08:26 AM CST del 20 Dicembre 2014 (GMT -0600)
East Plano | Change Station
CLOSE
Current Station
Stazione meteo personale
Location: Plano, TX
Altitudine: 584 ft
Stazioni meteo nelle vicinanze

Alt. 584 ft 33.02 °N, 96.67 °W | Updated 10 minutes ago

Coperto
Coperto
43.8 °F
Sembra 44 °F
N
0.0
Vento Variabile Vento da Nord
Gusts 0.0 mph

Oggi
Massima -- | Minima -- °F
--% Possibilità di precip.
Ieri
Massima -- | Minima -- °F
Precip. -- in
7:25 AM 5:23 PM
Luna calante, 3% visible
Pressione 30.25 in
Visibilità 8.0 miglia
Nuvole Molto nuvoloso 900 ft
Coperto 1300 ft
Raffreddamento del vento 44 °F
Punto di rugiada 42 °F
Umidità 92%
Piovosità 0.00 in
Spessore del manto nevoso Non disponibile.
Raggi UV 0.0 fuori da 12
Polline 9.40 fuori da 12
Qualità dell'aria Non disponibile.
Flu Activity Non disponibile.
METAR KADS 201347Z 03004KT 8SM BKN009 OVC013 07/05 A3025

More Conditions Fewer Conditions

Pressione 30.25 in
Visibilità 8.0 miglia
Nuvole Molto nuvoloso 900 ft
Coperto 1300 ft
Raffreddamento del vento 44 °F
Punto di rugiada 42 °F
Umidità 92%
Piovosità 0.00 in
Spessore del manto nevoso Non disponibile.
Raggi UV 0.0 fuori da 12
Polline 9.40 fuori da 12
Qualità dell'aria Non disponibile.
Flu Activity Non disponibile.
METAR KADS 201347Z 03004KT 8SM BKN009 OVC013 07/05 A3025

More Conditions Fewer Conditions

10-Day Weather Forecast

Almanac

Astronomia

Dec. 20, 2014 Alba Tramonto
Ora attuale
Crepuscolo civile
Crepuscolo nautico
Crepuscolo astronomico
Luna
Estensione della luce visibile
Lunghezza del giorno
Tomorrow will be .
, % of the Moon is Illuminated

Gli estremi di oggi

State Highs State Lows

Community

WunderPhotos

Upload Photos

1,779,174 foto caricate!

WunderBlogs® & News

Nearby

Qualità dell'aria

  Qualità dell'aria Indice AQ Inquinante
Not available.

Profondità neve

Stazione Profondità Altitudine

Attività sismica

Città  Distanza Mag. Data & Ora
Minimo Magnitudo Mostrato è 2.5.

Temperature delle acque costiere

Località Temperatura

Stazioni meteo nelle vicinanze